• Join FlightAware (Why Join?)
  • Login
  • US Flag 
07:57AM EST


 

Airport Tracker/Info


-or-


 

Live Flight TrackerFlight Track Log ✈ RPA4937 ✈ 08-May-2013 ✈ KBWI - KEWR

Flight Track Log - Related Links

Times and Time Zones

All times are in EDT time to prevent confusion due to time zone crossing. See the RPA4937 flight status page for this flight to view local times or setup timezone preferences in your user account.

Time Position Orientation Groundspeed Altitude Reporting Facility
EDT Latitude Longitude Course Direction KTS MPH feet Rate Location/Type
05:37AM 39.1333 -76.6333 49° Northeast 198 228 2,800  Level Potomac TRACON
05:38AM 39.1500 -76.5667 72° East 211 243 5,900 2,880 Climbing Potomac TRACON
05:39AM 39.1833 -76.5000 57° Northeast 217 250 8,600 2,400 Climbing Potomac TRACON
05:40AM 39.1901 -76.1632 46° Northeast  Level FlightAware Approximate
05:40AM 39.2333 -76.4333 46° Northeast 239 275 10,800  Level Potomac TRACON
05:41AM 39.2677 -76.0765 46° Northeast  Level FlightAware Approximate
05:41AM 39.2667 -76.3500 63° Northeast 303 349 11,000  Level Potomac TRACON
05:42AM 39.3397 -75.9821 49° Northeast  Level FlightAware Approximate
05:42AM 39.3167 -76.2667 52° Northeast 323 372 11,800  Level Potomac TRACON
05:43AM 39.3667 -76.1667 57° Northeast 333 383 12,000 60 Climbing Potomac TRACON
05:45AM 39.4833 -75.9667 53° Northeast 322 371 12,100  Climbing Philadelphia TRACON
05:46AM 39.5333 -75.8833 52° Northeast 299 344 12,100  Level Philadelphia TRACON
05:47AM 39.5667 -75.7833 67° East 293 337 12,100  Level Philadelphia TRACON
05:48AM 39.6167 -75.7000 52° Northeast 293 337 12,100 -540 Level Philadelphia TRACON
05:49AM 39.6667 -75.6000 57° Northeast 318 366 11,100 -480 Descending Philadelphia TRACON
05:50AM 39.7167 -75.5000 57° Northeast 314 361 11,100  Level Philadelphia TRACON
05:51AM 39.7667 -75.4167 52° Northeast 310 357 11,100 -60 Level Philadelphia TRACON
05:52AM 39.8000 -75.3167 67° East 312 359 11,000 -480 Descending Philadelphia TRACON
05:53AM 39.8667 -75.2000 53° Northeast 297 342 10,100 -420 Descending Philadelphia TRACON
05:54AM 39.9000 -75.1167 62° Northeast 289 333 10,100 -360 Level Philadelphia TRACON
05:55AM 39.9500 -75.0333 52° Northeast 288 331 9,400 -960 Descending Philadelphia TRACON
05:56AM 39.9833 -74.9500 62° Northeast 267 307 8,200 -1,080 Descending Philadelphia TRACON
05:57AM 40.0333 -74.8500 57° Northeast 264 304 7,100 -600 Descending New York TRACON
05:58AM 40.0667 -74.7833 57° Northeast 249 287 7,000 -60 Descending New York TRACON
05:59AM 40.1000 -74.7000 62° Northeast 255 293 7,000  Level New York TRACON
06:00AM 40.1167 -74.6333 72° East 262 302 7,000  Level New York TRACON
06:01AM 40.1833 -74.5667 37° Northeast 266 306 7,000 -360 Level New York TRACON
06:02AM 40.2333 -74.5167 37° Northeast 260 299 6,300 -540 Descending New York TRACON
06:03AM 40.3000 -74.4667 30° Northeast 226 260 6,000 -180 Descending New York TRACON
06:04AM 40.3500 -74.4167 37° Northeast 227 261 6,000 -360 Level New York TRACON
06:05AM 40.4000 -74.3833 27° Northeast 219 252 5,300 -1,140 Descending New York TRACON
06:06AM 40.4500 -74.3333 37° Northeast 221 254 3,900 -1,260 Descending New York TRACON
06:07AM 40.4833 -74.3000 37° Northeast 199 229 3,100 -540 Descending New York TRACON
06:08AM 40.5333 -74.2833 14° North 178 205 3,000 -360 Descending New York TRACON
06:09AM 40.5667 -74.2500 37° Northeast 181 208 2,500 -780 Descending New York TRACON
06:10AM 40.6167 -74.2167 27° Northeast 138 159 1,600 -780 Descending New York TRACON
06:11AM 40.6333 -74.2000 37° Northeast 118 136 1,000 -600 Descending New York TRACON